Oaksville, New York
Current Conditions -  °F | °C
As of 1:55 PM on Friday 31 Oct 2014 (Local Time) from KNY0 Reporting Station
Overcast Overcast  
Wind Chill: 44°   Ceiling: 3300
Heat Index: 47°   Visibility: 10mi
Dew Point: 32°   Wind: 6mph
Humidity: 56%   Direction: 30°NNE
Pressure: 29.97"   Gusts: NA
Location:  42.7373°N, 74.9926°W
Report Text: KNY0 311755Z AUTO 03005KT 10SM OVC033 08/00 A2997 RMK AO2 T00830000 10088 21015
Loading
Personal Weather Stations






























Interactive Weather Map
Tropical Storm Tracking
New forecast layout! Learn more

10-Day Weather Forecast

Advertisements
Track Severe Weather on mobile